Aviation Digital Data Service (ADDS)

Output produced by METARs form (0535 UTC 26 February 2017)
found at http://aviationweather.gov/adds/metars/
 
KORH 260523Z 2606/2706 29014G25KT P6SM BKN110 
     FM260900 29014G25KT P6SM FEW110 
     FM261400 30014G28KT P6SM BKN040 
     FM270200 27010G18KT P6SM SKC